Tiempo atmosférico en la estación meteorológica de Pola de Somiedo, Asturias (668 m.)



Fecha
DESCASC
Temp. máxima en grados centígrados (hora)
DESCASC
Temp. mínima en grados centígrados (hora)
DESCASC
Temp. media en grados centígrados
DESCASC
Racha de viento máxima en m/sg (hora)
DESCASC
Velocidad máxima media en intervalos de 10 minutos(hora)
DESCASC
Precipitaciones diarias en mm
DESCASC
Precipitaciones de 00:00 a 06:00 en mm
DESCASC
Precipitaciones de 06:00 a 12:00 en mm
DESCASC
Precipitaciones de 12:00 a 18:00 en mm
DESCASC
Precipitaciones de 18:00 a 24:00 en mm
DESCASC
31-05-2020 22.9 (13:10) 13.7 (04:40) 18.3 10.28 (13:40) 5 (13:40) 8 0.8 0 7.2 0
30-05-2020 28.2 (15:00) 8.8 (07:10) 18.5 6.39 (12:40) 2.78 (12:30) 0 0 0 0 0
29-05-2020 28.2 (14:50) 10 (07:20) 19.1 5 (17:30) 1.94 (17:40) 0 0 0 0 0
28-05-2020 29.7 (15:10) 12.2 (00:00) 21 5 (14:30) 1.67 (15:10) 0 0 0 0 0
27-05-2020 26.3 (17:00) 10.8 (00:00) 18.5 6.39 (16:10) 2.78 (12:30) 0 0 0 0 0
26-05-2020 23.6 (16:20) 6.8 (00:00) 15.2 6.11 (16:10) 2.22 (14:20) 0 0 0 0 0
25-05-2020 22.1 (17:10) 11.5 (00:00) 16.8 5.83 (17:50) 2.22 (15:50) 0 0 0 0 0
24-05-2020 19.8 (16:30) 10.9 (00:00) 15.3 6.67 (14:30) 2.5 (16:40) 0 0 0 0 0
23-05-2020 14.7 (15:40) 11.2 (00:00) 12.9 5.28 (12:30) 2.22 (12:30) 0 0 0 0 0
22-05-2020 24.5 (14:30) 10.5 (00:00) 17.5 7.22 (19:40) 2.78 (19:50) 0 0 0 0 0
21-05-2020 29.9 (17:10) 9.9 (00:00) 19.9 8.33 (14:50) 3.33 (14:30) 0 0 0 0 0
20-05-2020 27.2 (14:50) 9.7 (00:00) 18.5 6.39 (21:20) 3.33 (21:10) 0 0 0 0 0
19-05-2020 26.4 (16:00) 8.6 (00:00) 17.5 5.83 (17:50) 2.5 (13:10) 0 0 0 0 0
18-05-2020 24.3 (15:00) 4.5 (00:00) 14.4 6.39 (16:50) 3.06 (12:20) 0 0 0 0 0
17-05-2020 22.1 (16:50) 2.2 (00:00) 12.2 5.56 (18:20) 2.22 (17:10) 0 0 0 0 0
16-05-2020 17.6 (16:30) 6.4 (00:00) 12 5.56 (21:20) 2.22 (14:30) 0.2 0 0 0.2 0
15-05-2020 9.9 (15:10) 7.7 (00:00) 8.8 6.67 (12:20) 2.5 (12:30) 7 0.4 5.6 0.2 0.8
14-05-2020 12.2 (14:30) 8.7 (00:00) 10.4 5.56 (13:10) 1.67 (15:10) 1.2 0 0.2 0.2 0.8
13-05-2020 14 (15:10) 8.3 (00:00) 11.2 4.17 (17:10) 1.67 (19:50) 3.6 0 0 2.4 1.2
12-05-2020 12.7 (11:30) 9 (00:00) 10.8 5.83 (16:10) 2.22 (14:30) 6.4 0 0 4.2 2.2
11-05-2020 17.6 (14:20) 7.7 (00:00) 12.7 5 (14:10) 1.94 (14:10) 4 0 0 4 0
10-05-2020 14.7 (17:20) 10.1 (00:00) 12.4 5 (18:20) 1.67 (18:20) 2.6 1.2 1 0 0.4
09-05-2020 18.7 (14:50) 8.3 (00:00) 13.5 8.06 (15:20) 3.06 (15:20) 11.6 0 0 2.6 9
08-05-2020 23.4 (16:50) 11 (00:00) 17.2 10 (17:20) 3.61 (16:40) 22.8 7.2 2 4.6 9
07-05-2020 24 (15:50) 7.2 (00:00) 15.6 6.11 (16:40) 2.22 (12:30) 0 0 0 0 0
06-05-2020 22.8 (14:10) 6.3 (00:00) 14.5 7.22 (12:30) 2.78 (15:00) 0 0 0 0 0
05-05-2020 21.5 (17:50) 8.3 (00:00) 14.9 18.06 (03:50) 6.11 (03:40) 0 0 0 0 0
04-05-2020 27.4 (13:00) 12.5 (00:00) 19.9 18.33 (17:50) 5.83 (18:20) 4 0 0 2.6 1.4
03-05-2020 25 (15:50) 5.9 (00:00) 15.5 6.67 (17:20) 2.78 (17:10) 0 0 0 0 0

Gráficas

Temp. máximas Temp. mínimas Temp. medias Precipitaciones Rachas de viento máximas Velocidades máximas media en intervalos de 10 minutos

Datos horarios

Fecha y hora oficial Temperatura (ºC) Velocidad del viento (km/h) Dirección del viento Racha (km/h) Dirección de racha Precipitación (mm) Presión (hPa) Tendencia (hPa) Humedad (%)
2020-06-01 23:00:00 17.6 0 Calma 9 Sudoeste 0 -- -- 95
2020-06-01 22:00:00 18.2 2 Sur 8 Norte 0 -- -- 93
2020-06-01 21:00:00 19.4 0 Calma 3 Oeste 0 -- -- 93
2020-06-01 20:00:00 20.2 0 Calma 5 Noroeste 0 -- -- 88
2020-06-01 19:00:00 21 0 Calma 6 Noroeste 0 -- -- 79
2020-06-01 18:00:00 21.4 4 Noroeste 10 Noroeste 0.8 -- -- 84
2020-06-01 17:00:00 21.9 2 Norte 12 Norte 0 -- -- 78
2020-06-01 16:00:00 19.4 3 Noroeste 12 Noroeste 0 -- -- 92
2020-06-01 15:00:00 19.5 2 Norte 20 Nordeste 7.2 -- -- 91
2020-06-01 14:00:00 24.1 6 Norte 15 Nordeste 0 -- -- 67
2020-06-01 13:00:00 24.8 5 Norte 16 Norte 0 -- -- 67
2020-06-01 12:00:00 22.3 5 Norte 13 Nordeste 0 -- -- 68
2020-06-01 11:00:00 16.1 0 Calma -- -- 0 -- -- 100
2020-06-01 10:00:00 11.9 0 Calma -- -- 0 -- -- 100
2020-06-01 09:00:00 11.4 0 Calma -- -- 0 -- -- 100
2020-06-01 08:00:00 10.9 0 Calma -- -- 0 -- -- 100
2020-06-01 07:00:00 10.8 0 Calma -- -- 0 -- -- 100
2020-06-01 06:00:00 10.8 0 Calma -- -- 0 -- -- 100
2020-06-01 05:00:00 11.1 0 Calma -- -- 0 -- -- 100
2020-06-01 04:00:00 11.5 0 Calma -- -- 0 -- -- 100
2020-06-01 03:00:00 12 0 Calma -- -- 0 -- -- 99
2020-06-01 02:00:00 12.8 0 Calma -- -- 0 -- -- 98
2020-06-01 01:00:00 13.7 0 Calma -- -- 0 -- -- 98
2020-06-01 00:00:00 14.2 0 Calma -- -- 0 -- -- 96
2020-05-31 23:00:00 15 0 Calma -- -- 0 -- -- 95
2020-05-31 22:00:00 16.6 0 Calma -- -- 0 -- -- 91
2020-05-31 21:00:00 18.6 0 Calma -- -- 0 -- -- 87
2020-05-31 20:00:00 20.2 0 Calma -- -- 0 -- -- 84
2020-05-31 19:00:00 21.7 0 Calma 5 Sudoeste 0 -- -- 70
2020-05-31 18:00:00 21.4 2 Oeste 5 Noroeste 0 -- -- 67
2020-05-31 17:00:00 19.1 0 Calma 9 Sur 0 -- -- 80
2020-05-31 16:00:00 16.6 4 Sur 8 Sudoeste 0 -- -- 88
2020-05-31 15:00:00 15.2 2 Norte 7 Sudoeste 5.6 -- -- 95
2020-05-31 14:00:00 18 6 Norte 37 Nordeste 1.6 -- -- 70
2020-05-31 13:00:00 22.5 4 Norte 12 Norte 0 -- -- 71
2020-05-31 12:00:00 21.7 0 Calma 4 Sudoeste 0 -- -- 78
2020-05-31 11:00:00 20 2 Norte 5 Norte 0 -- -- 82
2020-05-31 10:00:00 17.3 0 Calma 4 Sur 0 -- -- 94
2020-05-31 09:00:00 15.9 0 Calma 6 Sudoeste 0 -- -- 100
2020-05-31 08:00:00 14.6 0 Calma 8 Sudeste 0 -- -- 100
2020-05-31 07:00:00 14.6 0 Calma 5 Oeste 0 -- -- 99
2020-05-31 06:00:00 14.6 0 Calma 18 Este 0.8 -- -- 98
2020-05-31 05:00:00 13.8 0 Calma -- -- 0 -- -- 95
2020-05-31 04:00:00 14 0 Calma 4 Sudoeste 0 -- -- 94
2020-05-31 03:00:00 14.2 0 Calma -- -- 0 -- -- 95
2020-05-31 02:00:00 14.6 0 Calma 0 Calma 0 -- -- 93
2020-05-31 01:00:00 15.5 0 Calma 3 Sudoeste 0 -- -- 91
2020-05-31 00:00:00 16.8 0 Calma 3 Sudoeste 0 -- -- 89
2020-05-30 23:00:00 18 0 Calma 2 Sudoeste 0 -- -- 85
2020-05-30 22:00:00 19.9 0 Calma 4 Sur 0 -- -- 79
2020-05-30 21:00:00 22.2 0 Calma 9 Noroeste 0 -- -- 70
2020-05-30 20:00:00 23.4 4 Norte 13 Norte 0 -- -- 61
2020-05-30 19:00:00 24.9 6 Noroeste 15 Noroeste 0 -- -- 58
2020-05-30 18:00:00 27.1 4 Noroeste 19 Norte 0 -- -- 58
2020-05-30 17:00:00 27.6 6 Norte 20 Norte 0 -- -- 55
2020-05-30 16:00:00 28.1 6 Norte 19 Norte 0 -- -- 56
2020-05-30 15:00:00 28.2 5 Norte 19 Norte 0 -- -- 56
2020-05-30 14:00:00 27.6 6 Norte 22 Nordeste 0 -- -- 52
2020-05-30 13:00:00 26.6 7 Nordeste 23 Nordeste 0 -- -- 48
2020-05-30 12:00:00 23.5 5 Norte 14 Norte 0 -- -- 60
2020-05-30 11:00:00 16.2 0 Calma 6 Sudeste 0 -- -- 88
2020-05-30 10:00:00 10.2 0 Calma 5 Sudoeste 0 -- -- 100
2020-05-30 09:00:00 9.3 0 Calma 4 Sudoeste 0 -- -- 100
2020-05-30 08:00:00 8.8 0 Calma 3 Sudoeste 0 -- -- 100
2020-05-30 07:00:00 8.9 0 Calma 3 Oeste 0 -- -- 98
2020-05-30 06:00:00 9.4 0 Calma 4 Sudeste 0 -- -- 98
2020-05-30 05:00:00 10 0 Calma -- -- 0 -- -- 97
2020-05-30 04:00:00 10.8 0 Calma -- -- 0 -- -- 96
2020-05-30 03:00:00 11.8 0 Calma -- -- 0 -- -- 96
2020-05-30 02:00:00 12.7 0 Calma -- -- 0 -- -- 96
2020-05-30 01:00:00 13.6 0 Calma 3 Sudoeste 0 -- -- 94
2020-05-30 00:00:00 14.7 0 Calma 3 Sur 0 -- -- 92
2020-05-29 23:00:00 16.4 0 Calma 2 Oeste 0 -- -- 87
2020-05-29 22:00:00 18.7 0 Calma 11 Oeste 0 -- -- 80
2020-05-29 21:00:00 20.5 5 Noroeste 13 Norte 0 -- -- 70
2020-05-29 20:00:00 22.7 5 Norte 13 Norte 0 -- -- 65
2020-05-29 19:00:00 25.5 5 Norte 18 Norte 0 -- -- 61
2020-05-29 18:00:00 27.3 6 Norte 18 Norte 0 -- -- 61
2020-05-29 17:00:00 28.2 5 Norte 17 Norte 0 -- -- 56
2020-05-29 16:00:00 28.2 5 Norte 18 Nordeste 0 -- -- 54
2020-05-29 15:00:00 28.2 6 Norte 18 Norte 0 -- -- 54
2020-05-29 14:00:00 27.7 5 Norte 13 Nordeste 0 -- -- 52
2020-05-29 13:00:00 26.8 6 Norte 12 Norte 0 -- -- 48
2020-05-29 12:00:00 24.4 6 Nordeste 13 Norte 0 -- -- 53
2020-05-29 11:00:00 16.3 0 Calma -- -- 0 -- -- 82
2020-05-29 10:00:00 10.9 0 Calma -- -- 0 -- -- 98
2020-05-29 09:00:00 10.5 0 Calma -- -- 0 -- -- 98
2020-05-29 08:00:00 10.1 0 Calma -- -- 0 -- -- 97
2020-05-29 07:00:00 10.1 0 Calma -- -- 0 -- -- 96
2020-05-29 06:00:00 10.4 0 Calma -- -- 0 -- -- 96
2020-05-29 05:00:00 11 0 Calma -- -- 0 -- -- 95
2020-05-29 04:00:00 11.5 0 Calma -- -- 0 -- -- 94
2020-05-29 03:00:00 12.1 0 Calma -- -- 0 -- -- 94
2020-05-29 02:00:00 12.9 0 Calma -- -- 0 -- -- 92
2020-05-29 01:00:00 13.8 0 Calma -- -- 0 -- -- 92
2020-05-29 00:00:00 14.8 0 Calma -- -- 0 -- -- 90
2020-05-28 23:00:00 16.3 0 Calma -- -- 0 -- -- 87
2020-05-28 22:00:00 18.4 0 Calma -- -- 0 -- -- 81
2020-05-28 21:00:00 21.1 0 Calma 4 Sudoeste 0 -- -- 74
2020-05-28 20:00:00 24.8 2 Noroeste 13 Oeste 0 -- -- 61
2020-05-28 19:00:00 26.7 4 Noroeste 17 Norte 0 -- -- 56
2020-05-28 18:00:00 26.7 5 Norte 18 Oeste 0 -- -- 62
2020-05-28 17:00:00 27.3 5 Norte 14 Norte 0 -- -- 49
2020-05-28 16:00:00 29.3 5 Norte 16 Norte 0 -- -- 50
2020-05-28 15:00:00 29.6 6 Norte 18 Noroeste 0 -- -- 52
2020-05-28 14:00:00 29.1 6 Norte 14 Noroeste 0 -- -- 49
2020-05-28 13:00:00 28.5 3 Norte 7 Norte 0 -- -- 47
2020-05-28 12:00:00 25.2 0 Calma -- -- 0 -- -- 58
2020-05-28 11:00:00 18.6 0 Calma -- -- 0 -- -- 84
2020-05-28 10:00:00 13.5 0 Calma -- -- 0 -- -- 100
2020-05-28 09:00:00 13.1 0 Calma -- -- 0 -- -- 100
2020-05-28 08:00:00 12.6 0 Calma -- -- 0 -- -- 100
2020-05-28 07:00:00 12.3 0 Calma 6 Sudeste 0 -- -- 100
2020-05-28 06:00:00 12.3 0 Calma 5 Sur 0 -- -- 100
2020-05-28 05:00:00 12.4 2 Sur 5 Sudoeste 0 -- -- 100
2020-05-28 04:00:00 12.6 2 Sur 8 Sur 0 -- -- 99
2020-05-28 03:00:00 13 0 Calma -- -- 0 -- -- 98
2020-05-28 02:00:00 13.7 0 Calma -- -- 0 -- -- 98
2020-05-28 01:00:00 14.5 0 Calma -- -- 0 -- -- 96
2020-05-28 00:00:00 15.6 0 Calma -- -- 0 -- -- 94
2020-05-27 23:00:00 17.1 0 Calma -- -- 0 -- -- 90
2020-05-27 22:00:00 19 0 Calma -- -- 0 -- -- 86
2020-05-27 21:00:00 21.2 0 Calma 12 Noroeste 0 -- -- 79
2020-05-27 20:00:00 22.5 5 Noroeste 16 Noroeste 0 -- -- 72
2020-05-27 19:00:00 24.2 6 Noroeste 19 Norte 0 -- -- 67
2020-05-27 18:00:00 25.5 7 Norte 19 Norte 0 -- -- 69
2020-05-27 17:00:00 26.3 5 Norte 23 Norte 0 -- -- 69
2020-05-27 16:00:00 26.1 6 Norte 22 Nordeste 0 -- -- 66
2020-05-27 15:00:00 25.8 6 Norte 19 Norte 0 -- -- 67
2020-05-27 14:00:00 24.9 7 Norte 19 Norte 0 -- -- 67
2020-05-27 13:00:00 24.3 6 Norte 20 Norte 0 -- -- 65
2020-05-27 12:00:00 22.1 4 Norte 13 Nordeste 0 -- -- 68
2020-05-27 11:00:00 16.1 3 Sudeste 6 Sudeste 0 -- -- 86
2020-05-27 10:00:00 10.8 0 Calma 3 Nordeste 0 -- -- 98
2020-05-27 09:00:00 11 0 Calma 4 Sudeste 0 -- -- 96
2020-05-27 08:00:00 11.9 0 Calma 8 Sudoeste 0 -- -- 91
2020-05-27 07:00:00 13.4 3 Sur 8 Sur 0 -- -- 91
2020-05-27 06:00:00 13.9 0 Calma 0 Calma 0 -- -- 95
2020-05-27 05:00:00 14.1 0 Calma 3 Norte 0 -- -- 94
2020-05-27 04:00:00 14.3 0 Calma 4 Noroeste 0 -- -- 95
2020-05-27 03:00:00 14.6 0 Calma 3 Noroeste 0 -- -- 95
2020-05-27 02:00:00 15 0 Calma 8 Noroeste 0 -- -- 93
2020-05-27 01:00:00 15.1 3 Noroeste 10 Noroeste 0 -- -- 92
2020-05-27 00:00:00 15.4 2 Noroeste 10 Noroeste 0 -- -- 91
2020-05-26 23:00:00 15.9 2 Norte 9 Nordeste 0 -- -- 90
2020-05-26 22:00:00 16.3 4 Noroeste 12 Noroeste 0 -- -- 88
2020-05-26 21:00:00 17.1 4 Noroeste 13 Norte 0 -- -- 85
2020-05-26 20:00:00 18.3 4 Noroeste 19 Nordeste 0 -- -- 79
2020-05-26 19:00:00 20.5 6 Norte 17 Norte 0 -- -- 71
2020-05-26 18:00:00 22.9 6 Norte 19 Norte 0 -- -- 70
2020-05-26 17:00:00 23.5 6 Norte 22 Norte 0 -- -- 60
2020-05-26 16:00:00 23.4 6 Norte 17 Norte 0 -- -- 56
2020-05-26 15:00:00 22.9 6 Norte 18 Este 0 -- -- 61
2020-05-26 14:00:00 22.6 5 Norte 16 Norte 0 -- -- 56
2020-05-26 13:00:00 21.9 4 Norte 15 Norte 0 -- -- 49
2020-05-26 12:00:00 19.3 4 Norte 10 Norte 0 -- -- 64
2020-05-26 11:00:00 12.1 3 Nordeste 6 Nordeste 0 -- -- 86
2020-05-26 10:00:00 7.1 0 Calma 5 Este 0 -- -- 99
2020-05-26 09:00:00 6.8 0 Calma 2 Sudoeste 0 -- -- 97
2020-05-26 08:00:00 7.2 0 Calma 3 Sudoeste 0 -- -- 93
2020-05-26 07:00:00 8.7 0 Calma 7 Sudeste 0 -- -- 86
2020-05-26 06:00:00 9.7 0 Calma 5 Sur 0 -- -- 86
2020-05-26 05:00:00 10.1 0 Calma 4 Sur 0 -- -- 84
2020-05-26 04:00:00 10.4 2 Sur 6 Este 0 -- -- 85
2020-05-26 03:00:00 11 0 Calma 2 Norte 0 -- -- 93
2020-05-26 02:00:00 11.2 0 Calma 3 Norte 0 -- -- 99
2020-05-26 01:00:00 10.6 0 Calma 3 Sudeste 0 -- -- 98
2020-05-26 00:00:00 11.5 0 Calma 5 Oeste 0 -- -- 93
2020-05-25 23:00:00 13.1 0 Calma 5 Oeste 0 -- -- 90
2020-05-25 22:00:00 14.3 2 Noroeste 12 Noroeste 0 -- -- 86
2020-05-25 21:00:00 15.6 4 Noroeste 15 Noroeste 0 -- -- 81
2020-05-25 20:00:00 18 3 Norte 17 Norte 0 -- -- 76
2020-05-25 19:00:00 19.6 6 Norte 18 Norte 0 -- -- 71
2020-05-25 18:00:00 21.6 6 Norte 21 Norte 0 -- -- 69
2020-05-25 17:00:00 22 6 Norte 16 Norte 0 -- -- 69
2020-05-25 16:00:00 21.5 6 Norte 17 Nordeste 0 -- -- 71
2020-05-25 15:00:00 20.1 7 Norte 18 Norte 0 -- -- 74
2020-05-25 14:00:00 18.2 6 Norte 15 Norte 0 -- -- 82
2020-05-25 13:00:00 16.2 6 Norte 19 Norte 0 -- -- 85
2020-05-25 12:00:00 15.6 6 Norte 17 Noroeste 0 -- -- 86
2020-05-25 11:00:00 14 3 Norte 9 Norte 0 -- -- 90
2020-05-25 10:00:00 12.9 3 Norte 11 Nordeste 0 -- -- 95
2020-05-25 09:00:00 12.2 0 Calma 8 Norte 0 -- -- 98
2020-05-25 08:00:00 12 3 Noroeste 8 Noroeste 0 -- -- 99
2020-05-25 07:00:00 12.1 0 Calma 8 Noroeste 0 -- -- 99
2020-05-25 06:00:00 12.2 0 Calma 12 Norte 0 -- -- 98
2020-05-25 05:00:00 12.4 0 Calma 9 Noroeste 0 -- -- 99
2020-05-25 04:00:00 12.6 2 Norte 7 Noroeste 0 -- -- 99
2020-05-25 03:00:00 12.2 0 Calma 5 Sur 0 -- -- 98
2020-05-25 02:00:00 12.6 0 Calma 4 Sudoeste 0 -- -- 94
2020-05-25 01:00:00 13.9 2 Sur 6 Sur 0 -- -- 95
2020-05-25 00:00:00 14 0 Calma 3 Noroeste 0 -- -- 93
2020-05-24 23:00:00 14.2 0 Calma 4 Norte 0 -- -- 93
2020-05-24 22:00:00 14.4 0 Calma 13 Noroeste 0 -- -- 91
2020-05-24 21:00:00 15.8 4 Noroeste 12 Norte 0 -- -- 85
2020-05-24 20:00:00 17.4 5 Noroeste 13 Noroeste 0 -- -- 81
2020-05-24 19:00:00 18.6 5 Norte 19 Norte 0 -- -- 77
2020-05-24 18:00:00 19.1 6 Norte 15 Norte 0 -- -- 79
2020-05-24 17:00:00 18.9 7 Norte 24 Norte 0 -- -- 79
2020-05-24 16:00:00 19.1 8 Norte 22 Norte 0 -- -- 78
2020-05-24 15:00:00 17.7 8 Norte 24 Norte 0 -- -- 80
2020-05-24 14:00:00 17 8 Norte 22 Noroeste 0 -- -- 83
2020-05-24 13:00:00 15.8 9 Norte 24 Norte 0 -- -- 83
2020-05-24 12:00:00 14.3 6 Norte 15 Norte 0 -- -- 85
2020-05-24 11:00:00 13 3 Norte 9 Norte 0 -- -- 90
2020-05-24 10:00:00 11.7 3 Noroeste 7 Noroeste 0 -- -- 95
2020-05-24 09:00:00 11.3 0 Calma 5 Norte 0 -- -- 95
2020-05-24 08:00:00 11 2 Norte 7 Noroeste 0 -- -- 97
2020-05-24 07:00:00 10.9 0 Calma 2 Norte 0 -- -- 97
2020-05-24 06:00:00 10.9 0 Calma 4 Noroeste 0 -- -- 97
2020-05-24 05:00:00 11 0 Calma 4 Norte 0 -- -- 96
2020-05-24 04:00:00 11.1 0 Calma 6 Norte 0 -- -- 95
2020-05-24 03:00:00 11.2 0 Calma 7 Noroeste 0 -- -- 95
2020-05-24 02:00:00 11.3 3 Norte 9 Noroeste 0 -- -- 94
2020-05-24 01:00:00 11.5 0 Calma 6 Norte 0 -- -- 93
2020-05-24 00:00:00 11.6 0 Calma 9 Noroeste 0 -- -- 92
2020-05-23 23:00:00 11.7 4 Noroeste 10 Noroeste 0 -- -- 92
2020-05-23 22:00:00 11.9 4 Noroeste 14 Oeste 0 -- -- 91
2020-05-23 21:00:00 12.3 4 Noroeste 10 Noroeste 0 -- -- 91
2020-05-23 20:00:00 12.8 3 Norte 9 Noroeste 0 -- -- 90
2020-05-23 19:00:00 13.2 3 Norte 14 Norte 0 -- -- 89
2020-05-23 18:00:00 13.7 5 Norte 13 Norte 0 -- -- 88
2020-05-23 17:00:00 14.4 5 Norte 15 Norte 0 -- -- 86
2020-05-23 16:00:00 14.7 4 Norte 12 Norte 0 -- -- 83
2020-05-23 15:00:00 14.3 4 Norte 10 Noroeste 0 -- -- 82
2020-05-23 14:00:00 13.9 4 Norte 18 Norte 0 -- -- 82
2020-05-23 13:00:00 13.9 4 Norte 19 Noroeste 0 -- -- 82
2020-05-23 12:00:00 14.1 6 Norte 17 Nordeste 0 -- -- 84
2020-05-23 11:00:00 13.3 4 Norte 12 Noroeste 0 -- -- 88
2020-05-23 10:00:00 12.6 3 Noroeste 9 Noroeste 0 -- -- 90
2020-05-23 09:00:00 11.5 3 Norte 12 Noroeste 0 -- -- 96
2020-05-23 08:00:00 11.2 3 Norte 9 Noroeste 0 -- -- 98
2020-05-23 07:00:00 11.2 5 Noroeste 14 Noroeste 0 -- -- 96
2020-05-23 06:00:00 11.9 4 Norte 15 Norte 0 -- -- 95
2020-05-23 05:00:00 12.6 3 Noroeste 12 Noroeste 0 -- -- 95
2020-05-23 04:00:00 12.8 4 Noroeste 14 Noroeste 0 -- -- 96
2020-05-23 03:00:00 13 5 Noroeste 12 Noroeste 0 -- -- 95
2020-05-23 02:00:00 13.4 4 Noroeste 12 Norte 0 -- -- 95
2020-05-23 01:00:00 13.7 3 Oeste 12 Noroeste 0 -- -- 95
2020-05-23 00:00:00 13.9 4 Noroeste 11 Noroeste 0 -- -- 96
2020-05-22 23:00:00 14.6 3 Norte 10 Noroeste 0 -- -- 94
2020-05-22 22:00:00 14.9 4 Noroeste 17 Nordeste 0 -- -- 93
2020-05-22 21:00:00 16.1 5 Noroeste 19 Norte 0 -- -- 88
2020-05-22 20:00:00 18.1 6 Norte 26 Nordeste 0 -- -- 81
2020-05-22 19:00:00 19.6 7 Norte 18 Norte 0 -- -- 78
2020-05-22 18:00:00 21.3 8 Norte 23 Norte 0 -- -- 74
2020-05-22 17:00:00 23.6 6 Norte 22 Norte 0 -- -- 70
2020-05-22 16:00:00 24.1 9 Norte 22 Norte 0 -- -- 67
2020-05-22 15:00:00 24.2 8 Norte 20 Norte 0 -- -- 67
2020-05-22 14:00:00 24.2 6 Norte 22 Nordeste 0 -- -- 69
2020-05-22 13:00:00 23.5 6 Norte 18 Norte 0 -- -- 65
2020-05-22 12:00:00 21.5 5 Norte 16 Nordeste 0 -- -- 73
2020-05-22 11:00:00 15.7 0 Calma 3 Sudeste 0 -- -- 100
2020-05-22 10:00:00 11.2 2 Sur 6 Sudeste 0 -- -- 100
2020-05-22 09:00:00 10.6 0 Calma 5 Sudeste 0 -- -- 100
2020-05-22 08:00:00 10.6 0 Calma 5 Sudoeste 0 -- -- 100
2020-05-22 07:00:00 10.8 0 Calma 5 Sudoeste 0 -- -- 100
2020-05-22 06:00:00 11.4 2 Sudoeste 5 Oeste 0 -- -- 99
2020-05-22 05:00:00 12.1 0 Calma 6 Este 0 -- -- 99
2020-05-22 04:00:00 12.9 0 Calma 6 Sudeste 0 -- -- 98
2020-05-22 03:00:00 13.6 0 Calma 4 Sudeste 0 -- -- 97
2020-05-22 02:00:00 14.2 2 Sur 4 Sur 0 -- -- 96
2020-05-22 01:00:00 14.8 0 Calma 3 Oeste 0 -- -- 95
2020-05-22 00:00:00 15.8 0 Calma 4 Sur 0 -- -- 92
2020-05-21 23:00:00 17.3 0 Calma 3 Sur 0 -- -- 88
2020-05-21 22:00:00 19.1 2 Sudoeste 7 Noroeste 0 -- -- 80
2020-05-21 21:00:00 21.5 2 Noroeste 15 Norte 0 -- -- 70
2020-05-21 20:00:00 22.8 3 Noroeste 17 Nordeste 0 -- -- 67
2020-05-21 19:00:00 24.4 5 Norte 17 Nordeste 0 -- -- 62
2020-05-21 18:00:00 28.8 6 Sudoeste 22 Este 0 -- -- 42
2020-05-21 17:00:00 29.7 9 Sur 22 Sudeste 0 -- -- 32
2020-05-21 16:00:00 29.4 7 Sudeste 25 Este 0 -- -- 37
2020-05-21 15:00:00 28.7 8 Sur 30 Sur 0 -- -- 29
2020-05-21 14:00:00 28.4 9 Sur 26 Sudeste 0 -- -- 33
2020-05-21 13:00:00 27.2 6 Sur 22 Sur 0 -- -- 37
2020-05-21 12:00:00 23.1 3 Nordeste 6 Norte 0 -- -- 62
2020-05-21 11:00:00 19.2 2 Nordeste 23 Sudeste 0 -- -- 70
2020-05-21 10:00:00 12.3 2 Nordeste 10 Norte 0 -- -- 98
2020-05-21 09:00:00 10.3 3 Norte 9 Norte 0 -- -- 100
2020-05-21 08:00:00 10.1 0 Calma 4 Sur 0 -- -- 100
2020-05-21 07:00:00 10 0 Calma 4 Oeste 0 -- -- 99
2020-05-21 06:00:00 10.5 2 Sur 4 Sur 0 -- -- 99
2020-05-21 05:00:00 10.8 2 Sur 4 Sur 0 -- -- 99
2020-05-21 04:00:00 11.3 2 Sur 4 Sur 0 -- -- 99
2020-05-21 03:00:00 11.8 0 Calma 3 Sur 0 -- -- 98
2020-05-21 02:00:00 11.9 0 Calma 4 Sudeste 0 -- -- 97
2020-05-21 01:00:00 12.8 0 Calma 4 Sur 0 -- -- 95
2020-05-21 00:00:00 13.9 2 Sur 3 Sudeste 0 -- -- 93
2020-05-20 23:00:00 15.4 2 Sur 6 Noroeste 0 -- -- 87
2020-05-20 22:00:00 17 0 Calma 23 Nordeste 0 -- -- 82
2020-05-20 21:00:00 19.1 8 Nordeste 22 Norte 0 -- -- 76
2020-05-20 20:00:00 20.8 5 Norte 16 Este 0 -- -- 69
2020-05-20 19:00:00 23.2 3 Noroeste 13 Norte 0 -- -- 66
2020-05-20 18:00:00 25.3 5 Norte 11 Norte 0 -- -- 61
2020-05-20 17:00:00 23.3 0 Calma 7 Sur 0 -- -- 66
2020-05-20 16:00:00 23 0 Calma 13 Nordeste 0 -- -- 64
2020-05-20 15:00:00 27.1 6 Norte 15 Norte 0 -- -- 47
2020-05-20 14:00:00 26.5 5 Norte 21 Norte 0 -- -- 52
2020-05-20 13:00:00 25.8 6 Norte 17 Nordeste 0 -- -- 53
2020-05-20 12:00:00 24 7 Nordeste 14 Nordeste 0 -- -- 50
2020-05-20 11:00:00 15.8 0 Calma 3 Sudeste 0 -- -- 93
2020-05-20 10:00:00 10.6 0 Calma 3 Sur 0 -- -- 100
2020-05-20 09:00:00 10.2 0 Calma 4 Sur 0 -- -- 100
2020-05-20 08:00:00 9.8 2 Sur 4 Sur 0 -- -- 100
2020-05-20 07:00:00 9.7 0 Calma 5 Sur 0 -- -- 99
2020-05-20 06:00:00 9.8 3 Sur 5 Sur 0 -- -- 99
2020-05-20 05:00:00 10 2 Sur 5 Sur 0 -- -- 98
2020-05-20 04:00:00 10.2 2 Sur 4 Sur 0 -- -- 97
2020-05-20 03:00:00 10.5 2 Sur 4 Sudoeste 0 -- -- 95
2020-05-20 02:00:00 11.1 2 Sur 5 Sur 0 -- -- 94
2020-05-20 01:00:00 11.8 2 Sur 4 Sudoeste 0 -- -- 94
2020-05-20 00:00:00 12.7 2 Sur 4 Sur 0 -- -- 91
2020-05-19 23:00:00 14 0 Calma 4 Sudoeste 0 -- -- 89
2020-05-19 22:00:00 16.1 0 Calma 2 Oeste 0 -- -- 84
2020-05-19 21:00:00 18.8 0 Calma 10 Norte 0 -- -- 74
2020-05-19 20:00:00 21.1 4 Noroeste 13 Noroeste 0 -- -- 62
2020-05-19 19:00:00 24.2 5 Noroeste 15 Noroeste 0 -- -- 53
2020-05-19 18:00:00 25.3 5 Norte 21 Noroeste 0 -- -- 57
2020-05-19 17:00:00 26.2 6 Norte 19 Norte 0 -- -- 51
2020-05-19 16:00:00 26.4 6 Norte 18 Norte 0 -- -- 55
2020-05-19 15:00:00 25.9 5 Norte 16 Nordeste 0 -- -- 51
2020-05-19 14:00:00 25 5 Norte 21 Nordeste 0 -- -- 52
2020-05-19 13:00:00 23.6 7 Norte 21 Nordeste 0 -- -- 49
2020-05-19 12:00:00 20.4 3 Sudeste 5 Sur 0 -- -- 53
2020-05-19 11:00:00 13.6 0 Calma 2 Nordeste 0 -- -- 98
2020-05-19 10:00:00 9.2 0 Calma 2 Sudoeste 0 -- -- 100
2020-05-19 09:00:00 8.7 0 Calma 4 Oeste 0 -- -- 100
2020-05-19 08:00:00 8.6 0 Calma 4 Sudoeste 0 -- -- 100
2020-05-19 07:00:00 9 0 Calma 3 Sudoeste 0 -- -- 99
2020-05-19 06:00:00 9.5 0 Calma 4 Sudoeste 0 -- -- 100
2020-05-19 05:00:00 9.6 0 Calma 3 Oeste 0 -- -- 99
2020-05-19 04:00:00 9.9 0 Calma 2 Sudoeste 0 -- -- 98
2020-05-19 03:00:00 10.3 0 Calma 3 Sudoeste 0 -- -- 97
2020-05-19 02:00:00 10.8 0 Calma 3 Sur 0 -- -- 95
2020-05-19 01:00:00 11.6 2 Sur 4 Sur 0 -- -- 95
2020-05-19 00:00:00 12.3 0 Calma 2 Sur 0 -- -- 92
2020-05-18 23:00:00 13.4 0 Calma 3 Sur 0 -- -- 87
2020-05-18 22:00:00 15.2 0 Calma 7 Sudoeste 0 -- -- 79
2020-05-18 21:00:00 17.4 3 Noroeste 18 Noroeste 0 -- -- 69
2020-05-18 20:00:00 18.6 5 Noroeste 17 Norte 0 -- -- 62
2020-05-18 19:00:00 21.5 6 Norte 21 Norte 0 -- -- 54
2020-05-18 18:00:00 23.3 6 Norte 17 Norte 0 -- -- 54
2020-05-18 17:00:00 24 7 Norte 23 Nordeste 0 -- -- 53
2020-05-18 16:00:00 24.1 6 Norte 19 Nordeste 0 -- -- 55
2020-05-18 15:00:00 24.3 5 Norte 16 Norte 0 -- -- 52
2020-05-18 14:00:00 23.4 5 Norte 15 Nordeste 0 -- -- 46
2020-05-18 13:00:00 22.3 5 Norte 20 Nordeste 0 -- -- 41
2020-05-18 12:00:00 18.9 4 Norte 13 Nordeste 0 -- -- 36
2020-05-18 11:00:00 10 0 Calma 2 Norte 0 -- -- 80
2020-05-18 10:00:00 5 0 Calma 2 Sudoeste 0 -- -- 100
2020-05-18 09:00:00 4.8 0 Calma 3 Sur 0 -- -- 99
2020-05-18 08:00:00 4.5 0 Calma 4 Sudoeste 0 -- -- 99
2020-05-18 07:00:00 4.7 0 Calma 5 Sur 0 -- -- 98
2020-05-18 06:00:00 5.2 0 Calma 4 Sur 0 -- -- 98
2020-05-18 05:00:00 5.9 2 Sur 4 Sur 0 -- -- 98
2020-05-18 04:00:00 6.7 2 Sur 4 Sudeste 0 -- -- 98
2020-05-18 03:00:00 7.6 2 Sur 3 Sudeste 0 -- -- 98
2020-05-18 02:00:00 8.4 2 Sudeste 4 Sur 0 -- -- 98
2020-05-18 01:00:00 9.1 0 Calma 3 Sur 0 -- -- 97
2020-05-18 00:00:00 9.9 0 Calma 4 Sudoeste 0 -- -- 96
2020-05-17 23:00:00 11.2 0 Calma 3 Sur 0 -- -- 93
2020-05-17 22:00:00 13 0 Calma 4 Sur 0 -- -- 88
2020-05-17 21:00:00 15.4 3 Sur 17 Norte 0 -- -- 79
2020-05-17 20:00:00 16.8 6 Noroeste 18 Noroeste 0 -- -- 68
2020-05-17 19:00:00 20.1 6 Norte 20 Norte 0 -- -- 58
2020-05-17 18:00:00 21.6 6 Norte 19 Norte 0 -- -- 59
2020-05-17 17:00:00 22.1 7 Norte 17 Norte 0 -- -- 59
2020-05-17 16:00:00 21.9 7 Norte 19 Norte 0 -- -- 59
2020-05-17 15:00:00 21.4 7 Norte 17 Nordeste 0 -- -- 54
2020-05-17 14:00:00 20.5 6 Norte 16 Norte 0 -- -- 61
2020-05-17 13:00:00 18.6 6 Norte 15 Norte 0 -- -- 52
2020-05-17 12:00:00 15 4 Sudeste 7 Este 0 -- -- 46
2020-05-17 11:00:00 6.9 0 Calma 2 Nordeste 0 -- -- 81
2020-05-17 10:00:00 2.6 0 Calma 2 Sur 0 -- -- 100
2020-05-17 09:00:00 2.3 0 Calma 2 Sur 0 -- -- 100
2020-05-17 08:00:00 2.2 0 Calma 3 Sur 0 -- -- 99
2020-05-17 07:00:00 2.7 0 Calma 3 Sur 0 -- -- 98
2020-05-17 06:00:00 3.5 0 Calma 3 Sudeste 0 -- -- 97
2020-05-17 05:00:00 4.7 0 Calma 3 Sur 0 -- -- 96
2020-05-17 04:00:00 6.3 0 Calma 4 Sudoeste 0 -- -- 91
2020-05-17 03:00:00 7.9 0 Calma 6 Sur 0 -- -- 89
2020-05-17 02:00:00 9 0 Calma 3 Norte 0 -- -- 96
2020-05-17 01:00:00 9.4 0 Calma 4 Sur 0 -- -- 98
2020-05-17 00:00:00 9.2 0 Calma 3 Sudoeste 0 -- -- 99
2020-05-16 23:00:00 9 0 Calma 6 Oeste 0 -- -- 95
2020-05-16 22:00:00 10.4 2 Sur 20 Nordeste 0 -- -- 91
2020-05-16 21:00:00 11.8 3 Noroeste 9 Noroeste 0 -- -- 86
2020-05-16 20:00:00 13.2 3 Norte 12 Nordeste 0 -- -- 80
2020-05-16 19:00:00 14.7 5 Norte 15 Norte 0 -- -- 73
2020-05-16 18:00:00 16.2 5 Norte 18 Nordeste 0 -- -- 70
2020-05-16 17:00:00 17.2 6 Norte 19 Norte 0 -- -- 62
2020-05-16 16:00:00 17 7 Norte 19 Norte 0 -- -- 67
2020-05-16 15:00:00 16.9 7 Norte 19 Noroeste 0 -- -- 61
2020-05-16 14:00:00 15.9 7 Norte 18 Norte 0 -- -- 63
2020-05-16 13:00:00 15.1 5 Norte 14 Noroeste 0.2 -- -- 60
2020-05-16 12:00:00 13.6 5 Norte 11 Norte 0 -- -- 69
2020-05-16 11:00:00 9.1 3 Nordeste 6 Nordeste 0 -- -- 98
2020-05-16 10:00:00 6.4 0 Calma 4 Sudeste 0 -- -- 100
2020-05-16 09:00:00 6.6 2 Sudeste 8 Noroeste 0 -- -- 100
2020-05-16 08:00:00 6.8 0 Calma 5 Norte 0 -- -- 100
2020-05-16 07:00:00 7.2 0 Calma 3 Sur 0 -- -- 100
2020-05-16 06:00:00 7.3 0 Calma 4 Noroeste 0 -- -- 100
2020-05-16 05:00:00 7.4 0 Calma 6 Norte 0 -- -- 99
2020-05-16 04:00:00 7.4 0 Calma 6 Noroeste 0 -- -- 99
2020-05-16 03:00:00 7.4 2 Noroeste 6 Noroeste 0 -- -- 99
2020-05-16 02:00:00 7.5 0 Calma 3 Norte 0 -- -- 100
2020-05-16 01:00:00 7.6 0 Calma 8 Norte 0 -- -- 99
2020-05-16 00:00:00 7.7 3 Noroeste 15 Noroeste 0 -- -- 98
2020-05-15 23:00:00 8.1 4 Noroeste 14 Norte 0 -- -- 98
2020-05-15 22:00:00 8.4 0 Calma 6 Noroeste 0.2 -- -- 99
2020-05-15 21:00:00 8.7 2 Oeste 10 Norte 0.2 -- -- 98
2020-05-15 20:00:00 8.9 2 Noroeste 8 Norte 0.2 -- -- 98
2020-05-15 19:00:00 9.1 3 Noroeste 12 Noroeste 0.2 -- -- 97
2020-05-15 18:00:00 9.8 4 Norte 12 Noroeste 0 -- -- 94
2020-05-15 17:00:00 9.4 4 Noroeste 12 Norte 0 -- -- 94
2020-05-15 16:00:00 9.6 3 Norte 11 Noroeste 0 -- -- 93
2020-05-15 15:00:00 9.7 3 Norte 8 Norte 0 -- -- 94
2020-05-15 14:00:00 9.2 4 Norte 19 Noroeste 0 -- -- 92
2020-05-15 13:00:00 8.9 6 Noroeste 24 Noroeste 0.2 -- -- 90
2020-05-15 12:00:00 9.2 4 Norte 16 Nordeste 0.8 -- -- 100
2020-05-15 11:00:00 9.1 3 Norte 6 Noroeste 1 -- -- 100
2020-05-15 10:00:00 8.9 0 Calma 6 Noroeste 1.2 -- -- 100
2020-05-15 09:00:00 8.6 3 Norte 7 Norte 1.6 -- -- 100
2020-05-15 08:00:00 8.5 0 Calma 8 Noroeste 0.8 -- -- 100
2020-05-15 07:00:00 8.4 3 Noroeste 7 Noroeste 0.2 -- -- 100
2020-05-15 06:00:00 8.5 2 Norte 7 Oeste 0 -- -- 100
2020-05-15 05:00:00 8.5 2 Norte 6 Norte 0 -- -- 100
2020-05-15 04:00:00 8.6 0 Calma 6 Noroeste 0 -- -- 100
2020-05-15 03:00:00 8.5 2 Noroeste 8 Noroeste 0 -- -- 100
2020-05-15 02:00:00 8.6 3 Norte 7 Noroeste 0.2 -- -- 100
2020-05-15 01:00:00 8.7 0 Calma 8 Noroeste 0.2 -- -- 100
2020-05-15 00:00:00 8.7 3 Norte 14 Nordeste 0 -- -- 100
2020-05-14 23:00:00 8.9 4 Norte 12 Norte 0.2 -- -- 100
2020-05-14 22:00:00 9.1 4 Noroeste 10 Nordeste 0.2 -- -- 99
2020-05-14 21:00:00 9.5 3 Norte 14 Norte 0.2 -- -- 98
2020-05-14 20:00:00 10.2 3 Norte 14 Nordeste 0 -- -- 96
2020-05-14 19:00:00 10.8 5 Norte 14 Nordeste 0.2 -- -- 94
2020-05-14 18:00:00 11.4 3 Norte 14 Nordeste 0.2 -- -- 92
2020-05-14 17:00:00 11.9 4 Norte 13 Nordeste 0 -- -- 91
2020-05-14 16:00:00 11.7 4 Norte 14 Norte 0 -- -- 92
2020-05-14 15:00:00 12 5 Norte 14 Norte 0 -- -- 90
2020-05-14 14:00:00 11.9 4 Norte 20 Norte 0 -- -- 93
2020-05-14 13:00:00 11.5 4 Norte 14 Norte 0 -- -- 96
2020-05-14 12:00:00 10.8 4 Norte 11 Noroeste 0 -- -- 97
2020-05-14 11:00:00 10.4 3 Noroeste 8 Norte 0.2 -- -- 99
2020-05-14 10:00:00 10.3 3 Noroeste 10 Norte 0 -- -- 97
2020-05-14 09:00:00 9.9 2 Noroeste 10 Noroeste 0 -- -- 99
2020-05-14 08:00:00 9.8 3 Noroeste 8 Noroeste 0 -- -- 100
2020-05-14 07:00:00 9.8 0 Calma 6 Norte 0 -- -- 99
2020-05-14 06:00:00 9.9 0 Calma 4 Noroeste 0 -- -- 100
2020-05-14 05:00:00 9.9 0 Calma 8 Norte 0 -- -- 99
2020-05-14 04:00:00 10 0 Calma 10 Norte 0 -- -- 99
2020-05-14 03:00:00 10 4 Noroeste 9 Norte 0 -- -- 100
2020-05-14 02:00:00 10.2 3 Noroeste 12 Nordeste 0 -- -- 100
2020-05-14 01:00:00 10.4 2 Noroeste 9 Norte 0 -- -- 100
2020-05-14 00:00:00 10.6 0 Calma 6 Oeste 0 -- -- 99
2020-05-13 23:00:00 10.7 2 Noroeste 6 Noroeste 0 -- -- 99
2020-05-13 22:00:00 10.8 3 Noroeste 11 Noroeste 0 -- -- 99
2020-05-13 21:00:00 11.2 4 Noroeste 14 Noroeste 0 -- -- 98
2020-05-13 20:00:00 11.7 4 Noroeste 13 Noroeste 0 -- -- 97
2020-05-13 19:00:00 11.8 4 Noroeste 12 Norte 1.2 -- -- 98
2020-05-13 18:00:00 13.3 5 Norte 15 Noroeste 0 -- -- 92
2020-05-13 17:00:00 13 4 Noroeste 12 Norte 1.4 -- -- 95
2020-05-13 16:00:00 13.5 2 Noroeste 8 Noroeste 1 -- -- 92
2020-05-13 15:00:00 13.8 3 Noroeste 9 Noroeste 0 -- -- 84
2020-05-13 14:00:00 12.8 0 Calma 4 Sudoeste 0 -- -- 86
2020-05-13 13:00:00 11.6 0 Calma 4 Norte 0 -- -- 87
2020-05-13 12:00:00 10.9 0 Calma 3 Oeste 0 -- -- 89
2020-05-13 11:00:00 10 0 Calma 6 Noroeste 0 -- -- 93
2020-05-13 10:00:00 9.2 2 Noroeste 4 Norte 0 -- -- 98
2020-05-13 09:00:00 8.7 0 Calma 3 Norte 0 -- -- 99
2020-05-13 08:00:00 8.4 0 Calma 8 Norte 0 -- -- 100
2020-05-13 07:00:00 8.3 4 Noroeste 11 Noroeste 0 -- -- 100
2020-05-13 06:00:00 8.4 3 Noroeste 11 Noroeste 0 -- -- 100
2020-05-13 05:00:00 8.5 2 Noroeste 6 Norte 0 -- -- 100
2020-05-13 04:00:00 8.6 2 Noroeste 4 Norte 0 -- -- 100
2020-05-13 03:00:00 8.6 0 Calma 8 Nordeste 0 -- -- 100
2020-05-13 02:00:00 8.7 2 Noroeste 7 Noroeste 0 -- -- 100
2020-05-13 01:00:00 8.8 2 Noroeste 5 Noroeste 0 -- -- 100
2020-05-13 00:00:00 9 0 Calma 6 Norte 0 -- -- 100
2020-05-12 23:00:00 9.1 0 Calma 10 Norte 0 -- -- 99
2020-05-12 22:00:00 9.2 3 Noroeste 9 Norte 0 -- -- 99
2020-05-12 21:00:00 9.7 3 Noroeste 10 Noroeste 0.2 -- -- 98
2020-05-12 20:00:00 10 3 Oeste 10 Noroeste 0.8 -- -- 98
2020-05-12 19:00:00 10 5 Noroeste 14 Noroeste 1.2 -- -- 98
2020-05-12 18:00:00 10.4 4 Noroeste 17 Norte 1.6 -- -- 99
2020-05-12 17:00:00 10.7 5 Norte 21 Noroeste 1 -- -- 98
2020-05-12 16:00:00 11.1 6 Noroeste 18 Noroeste 0.2 -- -- 95
2020-05-12 15:00:00 11.3 5 Noroeste 19 Noroeste 0.6 -- -- 96
2020-05-12 14:00:00 12.1 6 Noroeste 16 Norte 0 -- -- 92
2020-05-12 13:00:00 12.1 5 Noroeste 19 Noroeste 0.8 -- -- 96
2020-05-12 12:00:00 12.5 6 Noroeste 15 Norte 0 -- -- 89
2020-05-12 11:00:00 11.9 4 Noroeste 11 Noroeste 0 -- -- 90
2020-05-12 10:00:00 10.7 2 Noroeste 12 Noroeste 0 -- -- 94
2020-05-12 09:00:00 10.2 2 Norte 6 Norte 0 -- -- 98
2020-05-12 08:00:00 9.9 0 Calma 9 Nordeste 0 -- -- 97
2020-05-12 07:00:00 9.9 4 Noroeste 10 Noroeste 0 -- -- 99
2020-05-12 06:00:00 10 0 Calma 11 Norte 0 -- -- 100
2020-05-12 05:00:00 10.2 4 Noroeste 10 Noroeste 0 -- -- 99
2020-05-12 04:00:00 10.5 2 Norte 9 Noroeste 0 -- -- 98
2020-05-12 03:00:00 10.7 3 Noroeste 9 Noroeste 0 -- -- 98
2020-05-12 02:00:00 10.9 3 Noroeste 8 Noroeste 0 -- -- 98
2020-05-12 01:00:00 11 0 Calma 10 Oeste 0 -- -- 97
2020-05-12 00:00:00 11.4 0 Calma 6 Norte 0 -- -- 97
2020-05-11 23:00:00 11.5 0 Calma 5 Norte 0 -- -- 97
2020-05-11 22:00:00 11.7 0 Calma 8 Noroeste 0 -- -- 96
2020-05-11 21:00:00 11.8 4 Noroeste 10 Noroeste 0 -- -- 96
2020-05-11 20:00:00 12.1 3 Norte 13 Noroeste 0 -- -- 96
2020-05-11 19:00:00 13.6 3 Norte 9 Este 0 -- -- 91
2020-05-11 18:00:00 13.6 4 Noroeste 10 Noroeste 0 -- -- 92
2020-05-11 17:00:00 13.4 0 Calma 3 Norte 0.2 -- -- 89
2020-05-11 16:00:00 12.9 0 Calma 16 Sudoeste 3.8 -- -- 91
2020-05-11 15:00:00 16.2 7 Oeste 18 Norte 0 -- -- 71
2020-05-11 14:00:00 16.8 5 Norte 14 Nordeste 0 -- -- 72
2020-05-11 13:00:00 16.2 3 Norte 12 Norte 0 -- -- 71
2020-05-11 12:00:00 15.2 4 Norte 13 Norte 0 -- -- 75
2020-05-11 11:00:00 12.4 0 Calma 0 Calma 0 -- -- 90
2020-05-11 10:00:00 10.2 0 Calma 0 Calma 0 -- -- 100
2020-05-11 09:00:00 8.9 0 Calma 0 Calma 0 -- -- 100
2020-05-11 08:00:00 7.9 0 Calma 0 Calma 0 -- -- 100
2020-05-11 07:00:00 7.9 0 Calma 0 Calma 0 -- -- 100
2020-05-11 06:00:00 8.3 0 Calma 0 Calma 0 -- -- 100
2020-05-11 05:00:00 8.9 0 Calma 0 Calma 0 -- -- 100
2020-05-11 04:00:00 9 0 Calma 0 Calma 0 -- -- 100
2020-05-11 03:00:00 8.9 0 Calma 0 Calma 0 -- -- 100
2020-05-11 02:00:00 9.7 0 Calma 0 Calma 0 -- -- 100
2020-05-11 01:00:00 10 0 Calma 2 Norte 0 -- -- 100
2020-05-11 00:00:00 10.1 0 Calma 3 Sudeste 0 -- -- 100
2020-05-10 23:00:00 10.4 0 Calma 2 Sudoeste 0 -- -- 97
2020-05-10 22:00:00 11.4 0 Calma 3 Oeste 0 -- -- 97
2020-05-10 21:00:00 11.9 0 Calma 6 Norte 0 -- -- 92
2020-05-10 20:00:00 11.9 3 Noroeste 10 Noroeste 0.2 -- -- 94
2020-05-10 19:00:00 12.7 5 Norte 18 Norte 0.2 -- -- 89
2020-05-10 18:00:00 14.5 6 Norte 12 Noroeste 0 -- -- 80
2020-05-10 17:00:00 14.2 4 Norte 10 Norte 0 -- -- 77
2020-05-10 16:00:00 12.9 4 Norte 13 Noroeste 0 -- -- 85
2020-05-10 15:00:00 12.4 3 Norte 14 Noroeste 0 -- -- 89
2020-05-10 14:00:00 13 6 Norte 15 Norte 0 -- -- 86
2020-05-10 13:00:00 13.1 4 Norte 11 Noroeste 0 -- -- 87
2020-05-10 12:00:00 11.7 2 Sur 5 Norte 0 -- -- 92
2020-05-10 11:00:00 10.2 3 Norte 12 Nordeste 0.6 -- -- 98
2020-05-10 10:00:00 10.7 2 Norte 14 Norte 0.2 -- -- 100
2020-05-10 09:00:00 10.3 2 Noroeste 8 Norte 0 -- -- 100
2020-05-10 08:00:00 10.5 0 Calma 3 Noroeste 0.2 -- -- 100
2020-05-10 07:00:00 10.6 0 Calma 6 Norte 0 -- -- 100
2020-05-10 06:00:00 10.8 0 Calma 0 Calma 0.2 -- -- 100
2020-05-10 05:00:00 10.9 0 Calma 0 Calma 0.8 -- -- 100
2020-05-10 04:00:00 11 0 Calma 2 Norte 0 -- -- 100
2020-05-10 03:00:00 10.9 0 Calma 3 Sur 0 -- -- 100
2020-05-10 02:00:00 10.9 0 Calma 3 Sudoeste 0 -- -- 100
2020-05-10 01:00:00 10.8 0 Calma 4 Sudeste 0.2 -- -- 100
2020-05-10 00:00:00 11 0 Calma 4 Sudeste 0.2 -- -- 100
2020-05-09 23:00:00 11 0 Calma 4 Sudoeste 0 -- -- 100
2020-05-09 22:00:00 11.8 2 Sur 5 Noroeste 0.2 -- -- 100
2020-05-09 21:00:00 12 0 Calma 11 Noroeste 1.6 -- -- 99
2020-05-09 20:00:00 13 0 Calma 13 Noroeste 6.6 -- -- 98
2020-05-09 19:00:00 14.3 5 Noroeste 13 Noroeste 0.4 -- -- 95
2020-05-09 18:00:00 13.3 5 Norte 17 Noroeste 2.6 -- -- 96
2020-05-09 17:00:00 14.2 8 Norte 25 Norte 0 -- -- 92
2020-05-09 16:00:00 16.3 6 Norte 29 Norte 0 -- -- 86
2020-05-09 15:00:00 18.4 9 Norte 27 Norte 0 -- -- 78
2020-05-09 14:00:00 17.3 7 Noroeste 26 Noroeste 0 -- -- 82
2020-05-09 13:00:00 16.3 9 Norte 22 Nordeste 0 -- -- 82
2020-05-09 12:00:00 15.5 7 Norte 19 Norte 0 -- -- 90
2020-05-09 11:00:00 13 4 Norte 14 Noroeste 0 -- -- 100
2020-05-09 10:00:00 10.6 0 Calma 6 Sur 0 -- -- 100
2020-05-09 09:00:00 9.2 2 Norte 7 Oeste 0 -- -- 100
2020-05-09 08:00:00 8.8 2 Noroeste 7 Oeste 0 -- -- 100
2020-05-09 07:00:00 8.4 2 Sur 5 Oeste 0 -- -- 100
2020-05-09 06:00:00 8.7 2 Sudoeste 9 Sudeste 0 -- -- 100
2020-05-09 05:00:00 9 2 Sur 4 Sudeste 0 -- -- 100
2020-05-09 04:00:00 9.5 2 Sur 4 Sudoeste 0 -- -- 100
2020-05-09 03:00:00 10 0 Calma 4 Sudoeste 0 -- -- 100
2020-05-09 02:00:00 10.7 2 Sur 3 Sur 0 -- -- 100
2020-05-09 01:00:00 10.8 2 Sur 4 Este 0 -- -- 100
2020-05-09 00:00:00 11 2 Sur 4 Sudoeste 0 -- -- 99
2020-05-08 23:00:00 12.2 0 Calma 7 Oeste 0.2 -- -- 98
2020-05-08 22:00:00 12.9 0 Calma 7 Este 0 -- -- 99
2020-05-08 21:00:00 12.9 0 Calma 4 Norte 0 -- -- 99
2020-05-08 20:00:00 13.2 0 Calma 4 Noroeste 0.4 -- -- 99
2020-05-08 19:00:00 12.9 3 Sur 6 Este 8.4 -- -- 97
2020-05-08 18:00:00 14.7 2 Noroeste 36 Nordeste 4.6 -- -- 90
2020-05-08 17:00:00 23.3 4 Sudoeste 29 Sudoeste 0 -- -- 54
2020-05-08 16:00:00 23.3 8 Sur 21 Sudoeste 0 -- -- 53
2020-05-08 15:00:00 22.3 12 Sudoeste 27 Sudoeste 0 -- -- 60
2020-05-08 14:00:00 21.7 6 Sur 21 Sudoeste 0 -- -- 61
2020-05-08 13:00:00 22.5 5 Sur 21 Sudoeste 0 -- -- 58
2020-05-08 12:00:00 21.6 9 Sur 23 Sudeste 0.2 -- -- 60
2020-05-08 11:00:00 17 3 Nordeste 16 Sudoeste 0 -- -- 81
2020-05-08 10:00:00 13.9 2 Sudoeste 5 Sudoeste 0 -- -- 100
2020-05-08 09:00:00 12.6 2 Sudoeste 9 Sudoeste 0 -- -- 100
2020-05-08 08:00:00 12.5 0 Calma 6 Sudoeste 0.4 -- -- 100
2020-05-08 07:00:00 12.8 4 Norte 18 Este 1.4 -- -- 97
2020-05-08 06:00:00 12.5 2 Nordeste 6 Noroeste 1.4 -- -- 100
2020-05-08 05:00:00 12.6 2 Sur 14 Este 1 -- -- 100
2020-05-08 04:00:00 12.7 4 Sudoeste 10 Sudeste 3.8 -- -- 100
2020-05-08 03:00:00 12.9 2 Sur 5 Sur 0.4 -- -- 99
2020-05-08 02:00:00 13.4 3 Sudoeste 9 Sudoeste 0.2 -- -- 98
2020-05-08 01:00:00 13.9 5 Noroeste 18 Sur 0.4 -- -- 97
2020-05-08 00:00:00 13.4 0 Calma 0 Calma 0 -- -- 96
2020-05-07 23:00:00 14.4 0 Calma 3 Sudoeste 0 -- -- 92
2020-05-07 22:00:00 16.5 0 Calma 5 Sur 0 -- -- 87
2020-05-07 21:00:00 18.5 3 Sur 15 Norte 0 -- -- 81
2020-05-07 20:00:00 19.7 5 Noroeste 19 Norte 0 -- -- 75
2020-05-07 19:00:00 21.3 5 Norte 18 Nordeste 0 -- -- 70
2020-05-07 18:00:00 23.4 6 Norte 18 Noroeste 0 -- -- 62
2020-05-07 17:00:00 23.3 6 Norte 22 Nordeste 0 -- -- 65
2020-05-07 16:00:00 23.4 6 Norte 18 Norte 0 -- -- 62
2020-05-07 15:00:00 23.6 7 Norte 19 Norte 0 -- -- 62
2020-05-07 14:00:00 22.6 6 Norte 19 Norte 0 -- -- 63
2020-05-07 13:00:00 21.7 6 Norte 19 Nordeste 0 -- -- 65
2020-05-07 12:00:00 17.7 0 Calma 6 Sudeste 0 -- -- 70
2020-05-07 11:00:00 12 0 Calma 0 Calma 0 -- -- 100
2020-05-07 10:00:00 8.5 0 Calma 0 Calma 0 -- -- 100
2020-05-07 09:00:00 7.5 0 Calma 0 Calma 0 -- -- 100
2020-05-07 08:00:00 7.2 0 Calma 0 Calma 0 -- -- 100
2020-05-07 07:00:00 7.5 0 Calma 0 Calma 0 -- -- 99
2020-05-07 06:00:00 8.1 0 Calma 0 Calma 0 -- -- 98
2020-05-07 05:00:00 9.1 0 Calma 0 Calma 0 -- -- 98
2020-05-07 04:00:00 9.5 0 Calma 0 Calma 0 -- -- 98
2020-05-07 03:00:00 9.7 0 Calma 0 Calma 0 -- -- 98
2020-05-07 02:00:00 9.9 0 Calma 0 Calma 0 -- -- 97
2020-05-07 01:00:00 10.3 0 Calma 4 Sudoeste 0 -- -- 94
2020-05-07 00:00:00 11.7 0 Calma 3 Sudeste 0 -- -- 90
2020-05-06 23:00:00 12.7 0 Calma 8 Noroeste 0 -- -- 86
2020-05-06 22:00:00 14.5 2 Noroeste 9 Noroeste 0 -- -- 77
2020-05-06 21:00:00 15.5 4 Norte 13 Nordeste 0 -- -- 75
2020-05-06 20:00:00 16.8 4 Norte 15 Norte 0 -- -- 71
2020-05-06 19:00:00 17.3 5 Norte 15 Norte 0 -- -- 69
2020-05-06 18:00:00 18 4 Norte 18 Nordeste 0 -- -- 71
2020-05-06 17:00:00 18.7 7 Norte 22 Norte 0 -- -- 65
2020-05-06 16:00:00 20.3 7 Norte 20 Norte 0 -- -- 66
2020-05-06 15:00:00 21.5 10 Norte 25 Nordeste 0 -- -- 60
2020-05-06 14:00:00 22.7 7 Sur 21 Sudoeste 0 -- -- 34
2020-05-06 13:00:00 21.1 6 Sur 26 Sudoeste 0 -- -- 44
2020-05-06 12:00:00 18.2 5 Norte 15 Norte 0 -- -- 57
2020-05-06 11:00:00 12.7 2 Este 4 Sudeste 0 -- -- 84
2020-05-06 10:00:00 8.8 0 Calma 4 Sudeste 0 -- -- 100
2020-05-06 09:00:00 7.4 0 Calma 4 Sudeste 0 -- -- 100
2020-05-06 08:00:00 7.1 0 Calma 4 Sudeste 0 -- -- 100
2020-05-06 07:00:00 6.4 2 Sur 3 Sudoeste 0 -- -- 100
2020-05-06 06:00:00 6.4 3 Sur 4 Sur 0 -- -- 99
2020-05-06 05:00:00 6.6 2 Sur 4 Sudeste 0 -- -- 99
2020-05-06 04:00:00 6.8 2 Sur 5 Sudoeste 0 -- -- 98
2020-05-06 03:00:00 7.1 0 Calma 4 Sur 0 -- -- 96
2020-05-06 02:00:00 7.7 0 Calma 4 Sur 0 -- -- 95
2020-05-06 01:00:00 8.5 2 Sur 4 Sudeste 0 -- -- 93
2020-05-06 00:00:00 9.7 0 Calma 6 Este 0 -- -- 89
2020-05-05 23:00:00 11.2 0 Calma 8 Oeste 0 -- -- 84
2020-05-05 22:00:00 13.4 0 Calma 8 Sudoeste 0 -- -- 73
2020-05-05 21:00:00 16.6 3 Sudoeste 10 Sur 0 -- -- 58
2020-05-05 20:00:00 18.5 4 Sur 21 Sudeste 0 -- -- 49
2020-05-05 19:00:00 19.2 8 Sur 24 Sudeste 0 -- -- 41
2020-05-05 18:00:00 20.6 9 Sur 29 Sur 0 -- -- 39
2020-05-05 17:00:00 20.9 8 Sur 25 Sur 0 -- -- 41
2020-05-05 16:00:00 20.3 10 Sur 26 Sudoeste 0 -- -- 40
2020-05-05 15:00:00 20.1 10 Sur 25 Sur 0 -- -- 43
2020-05-05 14:00:00 18 9 Sur 24 Sudoeste 0 -- -- 48
2020-05-05 13:00:00 18.2 6 Sudeste 25 Sudoeste 0 -- -- 44
2020-05-05 12:00:00 17.4 6 Sudeste 19 Sudeste 0 -- -- 49
2020-05-05 11:00:00 14.2 0 Calma 8 Nordeste 0 -- -- 67
2020-05-05 10:00:00 12 3 Este 9 Sur 0 -- -- 70
2020-05-05 09:00:00 8.4 0 Calma 5 Oeste 0 -- -- 92
2020-05-05 08:00:00 8.3 3 Sudoeste 7 Sudeste 0 -- -- 91
2020-05-05 07:00:00 9.7 0 Calma 6 Este 0 -- -- 81
2020-05-05 06:00:00 13.3 4 Sur 34 Sudeste 0 -- -- 57
2020-05-05 05:00:00 14.1 9 Sudeste 41 Sudeste 0 -- -- 57
2020-05-05 04:00:00 14.4 9 Sudeste 65 Sudeste 0 -- -- 56
2020-05-05 03:00:00 14.7 13 Sudeste 37 Sudeste 0 -- -- 56
2020-05-05 02:00:00 14.6 8 Sur 32 Sudeste 0 -- -- 56
2020-05-05 01:00:00 14.8 6 Sur 35 Sudeste 0 -- -- 54
2020-05-05 00:00:00 15.2 9 Sur 35 Sudeste 0 -- -- 52
2020-05-04 23:00:00 15.8 9 Sur 41 Sudeste 0 -- -- 54
2020-05-04 22:00:00 16.3 11 Sur 42 Sudoeste 0 -- -- 53
2020-05-04 21:00:00 16.8 12 Sur 43 Este 0 -- -- 56
2020-05-04 20:00:00 16.6 14 Sur 45 Sudeste 0 -- -- 57
2020-05-04 19:00:00 15.3 10 Sudeste 50 Sur 1.4 -- -- 70
2020-05-04 18:00:00 23.4 13 Sur 66 Sudeste 0 -- -- 40
2020-05-04 17:00:00 21.3 13 Sudoeste 41 Sudoeste 0.8 -- -- 50
2020-05-04 16:00:00 18.8 4 Norte 29 Sudeste 1.8 -- -- 78
2020-05-04 15:00:00 24.2 9 Sur 22 Sudoeste 0 -- -- 44
2020-05-04 14:00:00 25.4 9 Sur 49 Sudeste 0 -- -- 41
2020-05-04 13:00:00 27.4 9 Sur 37 Sudoeste 0 -- -- 36
2020-05-04 12:00:00 24.9 9 Sur 35 Sudoeste 0 -- -- 43
2020-05-04 11:00:00 22.8 9 Sudoeste 17 Sudoeste 0 -- -- 47
2020-05-04 10:00:00 20.1 4 Sudoeste 15 Este 0 -- -- 60
2020-05-04 09:00:00 18.2 5 Sudoeste 16 Sudoeste 0 -- -- 63
2020-05-04 08:00:00 19.9 7 Sudoeste 30 Sur 0 -- -- 56
2020-05-04 07:00:00 20.6 9 Sur 26 Sudoeste 0 -- -- 53
2020-05-04 06:00:00 14.1 3 Oeste 10 Oeste 0 -- -- 84
2020-05-04 05:00:00 18.3 2 Sudoeste 20 Sur 0 -- -- 66
2020-05-04 04:00:00 20.4 10 Sur 30 Sudoeste 0 -- -- 55
2020-05-04 03:00:00 18 5 Sudoeste 20 Sudoeste 0 -- -- 67
2020-05-04 02:00:00 13.3 3 Norte 6 Sudeste 0 -- -- 92
2020-05-04 01:00:00 12.6 2 Este 8 Sudeste 0 -- -- 97
2020-05-04 00:00:00 12.8 3 Norte 7 Sudeste 0 -- -- 97
2020-05-03 23:00:00 14.2 0 Calma 4 Sur 0 -- -- 94
2020-05-03 22:00:00 16.3 0 Calma 4 Oeste 0 -- -- 89
2020-05-03 21:00:00 18.8 0 Calma 17 Noroeste 0 -- -- 82
2020-05-03 20:00:00 20.7 6 Noroeste 17 Noroeste 0 -- -- 73
2020-05-03 19:00:00 23.4 5 Noroeste 18 Norte 0 -- -- 64
2020-05-03 18:00:00 24.1 8 Norte 24 Noroeste 0 -- -- 62
2020-05-03 17:00:00 24.8 8 Norte 22 Norte 0 -- -- 61
2020-05-03 16:00:00 25 8 Norte 19 Norte 0 -- -- 57
2020-05-03 15:00:00 24.2 6 Norte 17 Norte 0 -- -- 59
2020-05-03 14:00:00 23.1 5 Norte 19 Norte 0 -- -- 58
2020-05-03 13:00:00 20.8 6 Norte 14 Norte 0 -- -- 63
2020-05-03 12:00:00 17.7 5 Norte 13 Norte 0 -- -- 72
2020-05-03 11:00:00 11.1 2 Este 5 Sudeste 0 -- -- 100
2020-05-03 10:00:00 7 0 Calma 4 Sudeste 1.6 -- -- 100
2020-05-03 09:00:00 6.2 0 Calma 3 Sudoeste 0 -- -- 100
2020-05-03 08:00:00 5.9 0 Calma 4 Sudeste 0 -- -- 100
2020-05-03 07:00:00 6.2 0 Calma 4 Sudeste 0 -- -- 100
2020-05-03 06:00:00 6.7 2 Sur 4 Sudeste 0 -- -- 100
2020-05-03 05:00:00 7.1 0 Calma 6 Este 0 -- -- 99
2020-05-03 04:00:00 7.6 0 Calma 4 Sudeste 0 -- -- 99
2020-05-03 03:00:00 8.2 0 Calma 4 Sudoeste 0 -- -- 98
2020-05-03 02:00:00 9 2 Sur 4 Sur 0 -- -- 97
2020-05-03 01:00:00 9.8 0 Calma 4 Sur 0 -- -- 96
2020-05-03 00:00:00 10.8 2 Sur 3 Sudoeste 0 -- -- 93